createdAt,value
2022-08-19T00:01:54.492Z,6.05
2022-08-19T00:04:22.810Z,2.50
2022-08-19T00:06:49.178Z,3.53
2022-08-19T00:09:17.732Z,4.03
2022-08-19T00:11:44.943Z,9.38
2022-08-19T00:14:12.350Z,8.48
2022-08-19T00:16:39.646Z,4.90
2022-08-19T00:19:06.286Z,6.95
2022-08-19T00:21:32.626Z,5.38
2022-08-19T00:23:59.267Z,5.15
2022-08-19T00:26:26.739Z,3.67
2022-08-19T00:28:53.077Z,4.57
2022-08-19T00:31:19.435Z,8.23
2022-08-19T00:33:45.977Z,7.22
2022-08-19T00:36:12.376Z,2.25
2022-08-19T00:38:42.171Z,1.55
2022-08-19T00:41:09.725Z,6.88
2022-08-19T00:43:36.068Z,5.13
2022-08-19T00:46:05.778Z,8.38
2022-08-19T00:48:33.181Z,5.32
2022-08-19T00:50:59.692Z,5.35
2022-08-19T00:53:28.272Z,4.03
2022-08-19T00:55:55.943Z,7.95
2022-08-19T00:58:25.390Z,3.65
2022-08-19T01:00:51.757Z,4.57
2022-08-19T01:03:19.354Z,4.15
2022-08-19T01:05:46.795Z,2.30
2022-08-19T01:08:14.662Z,3.95
2022-08-19T01:10:53.105Z,5.97
2022-08-19T01:13:20.799Z,3.80
2022-08-19T01:15:53.075Z,1.60
2022-08-19T01:18:20.379Z,8.32
2022-08-19T01:20:47.320Z,7.85
2022-08-19T01:23:14.173Z,3.42
2022-08-19T01:25:48.264Z,4.50
2022-08-19T01:28:33.842Z,6.07
2022-08-19T01:31:00.900Z,9.40
2022-08-19T01:33:27.278Z,8.45
2022-08-19T01:35:53.615Z,9.82
2022-08-19T01:38:21.950Z,4.88
2022-08-19T01:40:48.353Z,6.97
2022-08-19T01:43:16.108Z,10.85
2022-08-19T01:45:42.570Z,2.63
2022-08-19T01:48:09.829Z,5.43
2022-08-19T01:50:36.629Z,8.68
2022-08-19T01:53:06.565Z,3.67
2022-08-19T01:55:34.883Z,11.95
2022-08-19T01:58:02.870Z,9.25
2022-08-19T02:00:30.687Z,8.95
2022-08-19T02:02:57.675Z,9.77
2022-08-19T02:05:24.270Z,13.13
2022-08-19T02:07:50.851Z,10.85
2022-08-19T02:10:19.833Z,12.63
2022-08-19T02:12:46.552Z,13.40
2022-08-19T02:15:14.370Z,14.10
2022-08-19T02:17:40.857Z,10.43
2022-08-19T02:20:07.844Z,10.98
2022-08-19T02:22:34.407Z,9.38
2022-08-19T02:25:00.888Z,13.07
2022-08-19T02:27:27.545Z,4.47
2022-08-19T02:29:54.213Z,5.18
2022-08-19T02:32:20.947Z,2.83
2022-08-19T02:34:47.746Z,10.63
2022-08-19T02:37:37.793Z,13.18
2022-08-19T02:40:04.618Z,10.10
2022-08-19T02:42:39.024Z,9.38
2022-08-19T02:45:06.536Z,9.45
2022-08-19T02:47:32.887Z,12.68
2022-08-19T02:49:59.356Z,8.07
2022-08-19T02:52:26.462Z,13.35
2022-08-19T02:54:52.816Z,12.98
2022-08-19T02:57:19.177Z,15.73
2022-08-19T02:59:45.545Z,14.32
2022-08-19T03:02:11.887Z,15.90
2022-08-19T03:04:38.244Z,14.25
2022-08-19T03:07:10.704Z,11.68
2022-08-19T03:09:37.946Z,14.27
2022-08-19T03:12:05.328Z,15.52
2022-08-19T03:14:32.317Z,24.98
2022-08-19T03:16:58.942Z,15.02
2022-08-19T03:19:25.567Z,17.38
2022-08-19T03:21:52.399Z,15.40
2022-08-19T03:24:19.655Z,18.05
2022-08-19T03:26:47.556Z,23.67
2022-08-19T03:29:14.226Z,24.65
2022-08-19T03:31:50.966Z,22.48
2022-08-19T03:34:21.578Z,17.00
2022-08-19T03:36:48.352Z,18.63
2022-08-19T03:39:14.727Z,21.58
2022-08-19T03:41:44.578Z,25.30
2022-08-19T03:44:13.038Z,24.80
2022-08-19T03:46:45.566Z,20.67
2022-08-19T03:49:14.330Z,15.43
2022-08-19T03:51:41.638Z,22.10
2022-08-19T03:54:09.332Z,13.63
2022-08-19T03:56:37.325Z,23.98
2022-08-19T03:59:04.408Z,23.98
2022-08-19T04:01:35.306Z,26.02
2022-08-19T04:04:02.025Z,30.90
2022-08-19T04:06:31.387Z,42.38
2022-08-19T04:08:59.304Z,39.53
2022-08-19T04:11:43.281Z,44.95
2022-08-19T04:14:15.125Z,32.67
2022-08-19T04:16:42.031Z,42.75
2022-08-19T04:19:08.462Z,30.67
2022-08-19T04:21:34.915Z,44.25
2022-08-19T04:24:01.550Z,44.47
2022-08-19T04:26:35.234Z,48.78
2022-08-19T04:29:12.297Z,44.80
2022-08-19T04:31:39.597Z,43.83
2022-08-19T04:34:07.095Z,26.42
2022-08-19T04:36:34.862Z,35.25
2022-08-19T04:39:03.643Z,45.58
2022-08-19T04:41:48.371Z,41.08
2022-08-19T04:44:15.107Z,49.00
2022-08-19T04:46:51.368Z,45.42
2022-08-19T04:49:20.013Z,42.22
2022-08-19T04:51:48.201Z,37.78
2022-08-19T04:54:15.694Z,15.93
2022-08-19T04:56:57.384Z,35.97
2022-08-19T04:59:23.788Z,42.75
2022-08-19T05:01:50.771Z,40.28
2022-08-19T05:04:21.479Z,41.08
2022-08-19T05:06:49.557Z,35.60
2022-08-19T05:09:16.796Z,39.20
2022-08-19T05:11:43.756Z,24.98
2022-08-19T05:14:10.490Z,37.28
2022-08-19T05:16:36.814Z,37.00
2022-08-19T05:19:22.183Z,41.25
2022-08-19T05:22:07.350Z,30.58
2022-08-19T05:24:47.471Z,41.17
2022-08-19T05:27:23.132Z,43.20
2022-08-19T05:29:49.496Z,38.10
2022-08-19T05:32:15.818Z,43.55
2022-08-19T05:34:42.350Z,39.75
2022-08-19T05:37:09.305Z,29.85
2022-08-19T05:39:36.979Z,45.22
2022-08-19T05:42:08.024Z,17.65
2022-08-19T05:44:35.684Z,37.60
2022-08-19T05:47:03.800Z,38.47
2022-08-19T05:49:32.120Z,39.75
2022-08-19T05:51:59.471Z,36.78
2022-08-19T05:54:26.091Z,34.50
2022-08-19T05:56:53.252Z,35.45
2022-08-19T05:59:22.253Z,36.17
2022-08-19T06:01:52.641Z,32.80
2022-08-19T06:04:20.259Z,43.30
2022-08-19T06:06:47.767Z,43.22
2022-08-19T06:09:14.188Z,34.22
2022-08-19T06:11:46.108Z,33.97
2022-08-19T06:14:16.683Z,36.00
2022-08-19T06:16:43.811Z,35.38
2022-08-19T06:19:14.595Z,33.13
2022-08-19T06:21:41.871Z,39.58
2022-08-19T06:24:10.157Z,28.83
2022-08-19T06:26:37.730Z,36.15
2022-08-19T06:29:06.907Z,28.10
2022-08-19T06:31:34.740Z,31.00
2022-08-19T06:34:05.216Z,30.88
2022-08-19T06:36:34.864Z,29.63
2022-08-19T06:39:06.751Z,36.60
2022-08-19T06:41:38.191Z,19.58
2022-08-19T06:44:06.778Z,32.20
2022-08-19T06:46:40.271Z,27.67
2022-08-19T06:49:07.326Z,20.17
2022-08-19T06:51:37.410Z,21.70
2022-08-19T06:54:19.033Z,24.38
2022-08-19T06:56:46.783Z,39.38
2022-08-19T06:59:16.515Z,35.45
2022-08-19T07:01:46.720Z,35.40
2022-08-19T07:04:14.945Z,25.35
2022-08-19T07:06:44.306Z,22.15
2022-08-19T07:09:12.811Z,24.70
2022-08-19T07:11:39.331Z,29.80
2022-08-19T07:14:07.500Z,24.77
2022-08-19T07:16:46.685Z,31.60
2022-08-19T07:19:16.154Z,32.95
2022-08-19T07:21:45.577Z,21.02
2022-08-19T07:24:13.182Z,12.68
2022-08-19T07:26:42.200Z,33.80
2022-08-19T07:29:09.351Z,33.47
2022-08-19T07:31:38.490Z,19.13
2022-08-19T07:34:09.034Z,12.35
2022-08-19T07:36:37.112Z,19.75
2022-08-19T07:39:06.586Z,21.67
2022-08-19T07:41:33.031Z,23.55
2022-08-19T07:44:04.322Z,15.88
2022-08-19T07:46:32.168Z,23.80
2022-08-19T07:48:58.639Z,17.65
2022-08-19T07:51:36.235Z,13.48
2022-08-19T07:54:04.095Z,13.00
2022-08-19T07:56:30.522Z,10.00
2022-08-19T08:01:28.794Z,13.02
2022-08-19T08:04:15.135Z,14.65
2022-08-19T08:07:00.208Z,12.13
2022-08-19T08:09:29.764Z,13.37
2022-08-19T08:12:33.117Z,7.20
2022-08-19T08:14:59.187Z,13.87
2022-08-19T08:17:31.125Z,12.57
2022-08-19T08:20:14.175Z,10.73
2022-08-19T08:23:02.889Z,6.22
2022-08-19T08:25:29.484Z,9.75
2022-08-19T08:28:01.120Z,8.73
2022-08-19T08:30:31.154Z,8.25
2022-08-19T08:32:59.242Z,10.40
2022-08-19T08:35:25.914Z,9.43
2022-08-19T08:37:54.587Z,7.35
2022-08-19T08:40:50.833Z,7.60
2022-08-19T08:43:43.812Z,5.28
2022-08-19T08:46:12.774Z,7.00
2022-08-19T08:48:47.148Z,5.95
2022-08-19T08:51:24.895Z,7.75
2022-08-19T08:53:58.206Z,14.32
2022-08-19T08:56:25.147Z,5.85
2022-08-19T08:59:02.663Z,12.30
2022-08-19T09:01:30.298Z,5.72
2022-08-19T09:03:57.331Z,9.45
2022-08-19T09:06:41.648Z,7.82
2022-08-19T09:09:19.683Z,5.90
2022-08-19T09:11:46.004Z,8.23
2022-08-19T09:14:47.418Z,11.65
2022-08-19T09:17:08.540Z,6.13
2022-08-19T09:19:35.991Z,5.15
2022-08-19T09:22:02.381Z,6.65
2022-08-19T09:24:31.045Z,14.05
2022-08-19T09:26:57.765Z,4.97
2022-08-19T09:29:24.159Z,7.25
2022-08-19T09:31:51.008Z,6.60
2022-08-19T09:34:21.697Z,7.05
2022-08-19T09:36:54.566Z,6.47
2022-08-19T09:39:21.251Z,9.35
2022-08-19T09:41:49.170Z,5.88
2022-08-19T09:44:15.636Z,8.50
2022-08-19T09:46:41.973Z,6.80
2022-08-19T09:49:08.309Z,8.05
2022-08-19T09:51:35.036Z,7.70
2022-08-19T09:54:04.779Z,4.40
2022-08-19T09:56:32.335Z,3.85
2022-08-19T09:59:00.377Z,3.65
2022-08-19T10:01:28.017Z,3.17
2022-08-19T10:03:55.887Z,5.10
2022-08-19T10:06:39.939Z,3.83
2022-08-19T10:09:11.798Z,5.82
2022-08-19T10:11:46.900Z,5.05
2022-08-19T10:14:22.998Z,5.20
2022-08-19T10:16:50.333Z,4.60
2022-08-19T10:19:16.737Z,4.25
2022-08-19T10:21:52.184Z,4.22
2022-08-19T10:24:21.483Z,3.42
2022-08-19T10:26:55.929Z,3.60
2022-08-19T10:29:32.897Z,5.25
2022-08-19T10:32:02.829Z,3.88
2022-08-19T10:34:30.108Z,7.05
2022-08-19T10:37:00.806Z,6.25
2022-08-19T10:39:30.694Z,6.28
2022-08-19T10:41:57.847Z,3.90
2022-08-19T10:44:24.898Z,3.28
2022-08-19T10:46:59.890Z,5.22
2022-08-19T10:49:26.297Z,1.88
2022-08-19T10:52:13.104Z,7.82
2022-08-19T10:55:05.292Z,2.28
2022-08-19T10:58:03.887Z,1.50
2022-08-19T11:00:22.063Z,3.17
2022-08-19T11:02:48.440Z,2.78
2022-08-19T11:05:15.699Z,1.67
2022-08-19T11:07:42.467Z,3.38
2022-08-19T11:10:13.001Z,3.95
2022-08-19T11:12:40.229Z,2.53
2022-08-19T11:15:08.651Z,3.40
2022-08-19T11:17:35.524Z,5.75
2022-08-19T11:20:04.752Z,3.75
2022-08-19T11:22:39.081Z,1.58
2022-08-19T11:25:09.388Z,5.75
2022-08-19T11:27:38.558Z,2.75
2022-08-19T11:30:05.241Z,2.92
2022-08-19T11:32:34.824Z,5.47
2022-08-19T11:35:01.221Z,3.22
2022-08-19T11:37:28.071Z,2.67
2022-08-19T11:39:54.648Z,1.00
2022-08-19T11:42:39.500Z,3.88
2022-08-19T11:45:06.122Z,3.55
2022-08-19T11:47:32.625Z,3.05
2022-08-19T11:49:58.983Z,4.43
2022-08-19T11:52:26.373Z,2.40
2022-08-19T11:54:52.764Z,2.30
2022-08-19T11:57:20.656Z,2.58
2022-08-19T11:59:53.645Z,2.75
2022-08-19T12:02:20.154Z,2.67
2022-08-19T12:04:46.564Z,3.22
2022-08-19T12:07:12.900Z,4.13
2022-08-19T12:09:42.153Z,1.10
2022-08-19T12:12:09.580Z,3.15
2022-08-19T12:14:36.370Z,4.40
2022-08-19T12:17:05.113Z,5.10
2022-08-19T12:19:31.649Z,1.98
2022-08-19T12:22:02.536Z,3.53
2022-08-19T12:24:30.776Z,5.22
2022-08-19T12:27:00.901Z,2.60
2022-08-19T12:29:30.398Z,6.63
2022-08-19T12:32:04.028Z,4.50
2022-08-19T12:34:31.536Z,3.25
2022-08-19T12:36:59.037Z,1.83
2022-08-19T12:39:25.639Z,3.17
2022-08-19T12:41:55.031Z,2.58
2022-08-19T12:44:29.486Z,3.13
2022-08-19T12:46:58.822Z,3.95
2022-08-19T12:49:30.438Z,2.38
2022-08-19T12:52:16.073Z,2.03
2022-08-19T12:54:44.075Z,1.25
2022-08-19T12:57:11.424Z,3.30
2022-08-19T12:59:38.520Z,7.22
2022-08-19T13:02:06.996Z,2.80
2022-08-19T13:04:36.026Z,1.42
2022-08-19T13:07:02.455Z,0.93
2022-08-19T13:09:28.835Z,2.58
2022-08-19T13:11:55.447Z,3.30
2022-08-19T13:14:21.896Z,3.70
2022-08-19T13:16:48.292Z,2.15
2022-08-19T13:19:14.716Z,3.03
2022-08-19T13:21:41.123Z,4.10
2022-08-19T13:24:09.144Z,4.78
2022-08-19T13:26:35.482Z,3.60
2022-08-19T13:29:20.585Z,1.58
2022-08-19T13:32:05.848Z,2.10
2022-08-19T13:37:00.661Z,2.70
2022-08-19T13:39:27.008Z,2.78
2022-08-19T13:41:53.716Z,2.00
2022-08-19T13:44:20.294Z,3.47
2022-08-19T13:46:47.707Z,3.13
2022-08-19T13:49:15.904Z,1.75
2022-08-19T13:51:43.359Z,2.63
2022-08-19T13:54:10.517Z,1.00
2022-08-19T13:56:40.615Z,3.08
2022-08-19T13:59:06.969Z,1.70
2022-08-19T14:01:33.400Z,2.35
2022-08-19T14:03:59.987Z,4.93
2022-08-19T14:06:26.445Z,2.20
2022-08-19T14:08:53.713Z,1.10
2022-08-19T14:11:20.099Z,2.85
2022-08-19T14:13:46.592Z,2.90
2022-08-19T14:16:14.517Z,2.50
2022-08-19T14:18:41.408Z,2.05
2022-08-19T14:21:07.820Z,1.45
2022-08-19T14:23:34.935Z,1.25
2022-08-19T14:26:05.577Z,6.05
2022-08-19T14:28:32.023Z,3.58
2022-08-19T14:30:58.434Z,1.80
2022-08-19T14:33:27.516Z,3.28
2022-08-19T14:35:59.864Z,2.25
2022-08-19T14:38:31.304Z,5.70
2022-08-19T14:41:11.550Z,2.30
2022-08-19T14:43:37.935Z,3.85
2022-08-19T14:46:04.375Z,3.63
2022-08-19T14:48:30.735Z,4.82
2022-08-19T14:50:57.523Z,3.03
2022-08-19T14:53:23.946Z,2.63
2022-08-19T14:55:50.314Z,4.10
2022-08-19T14:58:29.282Z,3.85
2022-08-19T15:00:57.337Z,2.38
2022-08-19T15:03:23.691Z,2.67
2022-08-19T15:05:50.061Z,2.17
2022-08-19T15:08:16.453Z,1.85
2022-08-19T15:10:42.867Z,1.98
2022-08-19T15:13:10.828Z,3.50
2022-08-19T15:15:37.271Z,2.53
2022-08-19T15:18:04.794Z,2.55
2022-08-19T15:20:31.679Z,3.13
2022-08-19T15:22:59.708Z,2.15
2022-08-19T15:25:26.187Z,2.45
2022-08-19T15:27:53.745Z,1.40
2022-08-19T15:30:25.072Z,5.07
2022-08-19T15:32:53.383Z,6.47
2022-08-19T15:35:20.513Z,1.27
2022-08-19T15:37:49.340Z,1.25
2022-08-19T15:40:15.730Z,3.65
2022-08-19T15:42:43.473Z,2.38
2022-08-19T15:45:10.952Z,2.88
2022-08-19T15:47:37.985Z,3.20
2022-08-19T15:50:10.850Z,1.75
2022-08-19T15:52:37.435Z,2.50
2022-08-19T15:55:33.308Z,3.30
2022-08-19T15:58:28.880Z,1.75
2022-08-19T16:01:20.822Z,2.13
2022-08-19T16:04:14.279Z,0.77
2022-08-19T16:06:46.422Z,1.95
2022-08-19T16:09:13.124Z,1.05
2022-08-19T16:11:45.236Z,0.88
2022-08-19T16:14:12.774Z,0.82
2022-08-19T16:16:39.472Z,1.00
2022-08-19T16:19:10.553Z,0.90
2022-08-19T16:21:41.471Z,2.00
2022-08-19T16:24:09.182Z,1.23
2022-08-19T16:26:35.631Z,2.40
2022-08-19T16:29:02.938Z,2.22
2022-08-19T16:31:35.634Z,1.63
2022-08-19T16:34:02.270Z,0.98
2022-08-19T16:36:28.627Z,1.65
2022-08-19T16:38:55.081Z,1.88
2022-08-19T16:41:21.726Z,0.90
2022-08-19T16:43:52.092Z,1.05
2022-08-19T16:46:19.214Z,1.20
2022-08-19T16:48:47.764Z,3.83
2022-08-19T16:51:14.724Z,1.63
2022-08-19T16:53:41.568Z,2.08
2022-08-19T16:56:08.037Z,1.88
2022-08-19T16:58:34.409Z,2.20
2022-08-19T17:01:05.935Z,5.88
2022-08-19T17:03:36.154Z,2.33
2022-08-19T17:06:08.060Z,5.03
2022-08-19T17:08:48.471Z,2.88
2022-08-19T17:11:18.653Z,2.40
2022-08-19T17:13:47.933Z,1.67
2022-08-19T17:16:14.884Z,3.88
2022-08-19T17:18:41.257Z,3.28
2022-08-19T17:21:07.654Z,3.70
2022-08-19T17:23:42.095Z,1.58
2022-08-19T17:26:16.925Z,5.60
2022-08-19T17:28:45.732Z,3.53
2022-08-19T17:31:12.151Z,2.58
2022-08-19T17:33:41.277Z,3.58
2022-08-19T17:36:08.344Z,6.10
2022-08-19T17:38:35.773Z,3.10
2022-08-19T17:41:05.149Z,1.13
2022-08-19T17:43:40.101Z,2.50
2022-08-19T17:46:11.192Z,2.90
2022-08-19T17:48:40.584Z,4.10
2022-08-19T17:51:25.688Z,4.78
2022-08-19T17:53:53.400Z,3.73
2022-08-19T17:56:20.388Z,4.32
2022-08-19T17:59:00.730Z,3.25
2022-08-19T18:01:41.626Z,6.65
2022-08-19T18:04:16.954Z,2.45
2022-08-19T18:06:52.753Z,2.35
2022-08-19T18:09:23.972Z,3.33
2022-08-19T18:11:52.594Z,4.03
2022-08-19T18:14:19.490Z,1.80
2022-08-19T18:16:46.519Z,6.22
2022-08-19T18:19:12.872Z,1.98
2022-08-19T18:21:40.792Z,3.15
2022-08-19T18:24:07.263Z,2.58
2022-08-19T18:26:33.772Z,1.13
2022-08-19T18:29:00.182Z,2.83
2022-08-19T18:31:26.586Z,1.98
2022-08-19T18:33:53.017Z,1.75
2022-08-19T18:36:37.385Z,1.08
2022-08-19T18:39:25.128Z,3.67
2022-08-19T18:42:14.629Z,3.15
2022-08-19T18:45:00.135Z,4.53
2022-08-19T18:47:45.251Z,1.65
2022-08-19T18:50:12.982Z,2.20
2022-08-19T18:52:40.433Z,4.00
2022-08-19T18:55:07.490Z,2.33
2022-08-19T18:57:33.856Z,2.10
2022-08-19T19:00:00.374Z,3.45
2022-08-19T19:02:27.646Z,4.45
2022-08-19T19:04:55.978Z,4.13
2022-08-19T19:07:22.322Z,2.67
2022-08-19T19:09:51.432Z,3.20
2022-08-19T19:12:18.277Z,4.15
2022-08-19T19:14:49.452Z,4.93
2022-08-19T19:17:16.575Z,1.67
2022-08-19T19:19:43.901Z,4.07
2022-08-19T19:22:11.623Z,1.83
2022-08-19T19:24:39.309Z,4.68
2022-08-19T19:27:08.371Z,8.57
2022-08-19T19:29:36.568Z,6.13
2022-08-19T19:32:07.391Z,2.17
2022-08-19T19:34:33.787Z,3.15
2022-08-19T19:37:00.144Z,5.32
2022-08-19T19:39:45.447Z,8.85
2022-08-19T19:42:20.362Z,2.63
2022-08-19T19:44:48.768Z,4.30
2022-08-19T19:47:15.675Z,5.35
2022-08-19T19:50:03.884Z,3.90
2022-08-19T19:52:28.443Z,3.97
2022-08-19T19:54:56.701Z,6.32
2022-08-19T19:57:26.691Z,6.78
2022-08-19T19:59:54.187Z,4.47
2022-08-19T20:02:21.967Z,7.35
2022-08-19T20:04:48.821Z,5.13
2022-08-19T20:07:15.230Z,6.72
2022-08-19T20:09:58.654Z,2.25
2022-08-19T20:12:25.986Z,2.40
2022-08-19T20:14:52.328Z,3.83
2022-08-19T20:17:20.395Z,4.43
2022-08-19T20:19:47.782Z,4.47
2022-08-19T20:22:14.418Z,3.45
2022-08-19T20:24:42.484Z,5.53
2022-08-19T20:27:10.225Z,5.50
2022-08-19T20:29:38.738Z,3.33
2022-08-19T20:32:08.141Z,3.10
2022-08-19T20:34:34.596Z,8.27
2022-08-19T20:37:01.149Z,2.47
2022-08-19T20:39:27.553Z,4.35
2022-08-19T20:41:56.257Z,2.88
2022-08-19T20:44:24.056Z,3.50
2022-08-19T20:46:54.242Z,7.72
2022-08-19T20:49:23.070Z,6.82
2022-08-19T20:51:54.447Z,5.38
2022-08-19T20:54:20.847Z,8.60
2022-08-19T20:56:47.236Z,3.83
2022-08-19T20:59:13.583Z,3.40
2022-08-19T21:01:39.998Z,3.55
2022-08-19T21:04:06.447Z,4.80
2022-08-19T21:06:32.848Z,0.90
2022-08-19T21:08:59.200Z,7.55
2022-08-19T21:11:25.705Z,3.80
2022-08-19T21:13:52.159Z,6.10
2022-08-19T21:16:18.480Z,3.63
2022-08-19T21:18:44.843Z,4.72
2022-08-19T21:21:11.207Z,4.15
2022-08-19T21:23:37.535Z,2.78
2022-08-19T21:26:03.871Z,5.05
2022-08-19T21:28:35.994Z,7.53
2022-08-19T21:31:03.986Z,6.88
2022-08-19T21:33:31.978Z,5.47
2022-08-19T21:36:00.025Z,5.07
2022-08-19T21:38:26.798Z,6.20
2022-08-19T21:40:53.272Z,7.05
2022-08-19T21:43:19.688Z,5.75
2022-08-19T21:45:47.475Z,3.58
2022-08-19T21:48:14.711Z,3.35
2022-08-19T21:50:41.964Z,4.57
2022-08-19T21:53:08.716Z,5.63
2022-08-19T21:55:38.593Z,3.20
2022-08-19T21:58:05.004Z,5.72
2022-08-19T22:00:32.241Z,4.97
2022-08-19T22:02:58.714Z,5.38
2022-08-19T22:05:25.912Z,6.40
2022-08-19T22:07:53.148Z,2.22
2022-08-19T22:10:19.946Z,6.38
2022-08-19T22:12:51.534Z,7.80
2022-08-19T22:15:20.516Z,3.63
2022-08-19T22:17:47.294Z,1.90
2022-08-19T22:20:14.734Z,2.80
2022-08-19T22:22:47.272Z,2.60
2022-08-19T22:25:30.064Z,3.55
2022-08-19T22:28:00.444Z,1.52
2022-08-19T22:30:28.105Z,2.70
2022-08-19T22:33:02.926Z,3.13
2022-08-19T22:35:31.395Z,2.42
2022-08-19T22:38:00.717Z,3.17
2022-08-19T22:40:28.228Z,4.05
2022-08-19T22:43:02.056Z,11.40
2022-08-19T22:45:29.447Z,4.53
2022-08-19T22:47:56.030Z,2.10
2022-08-19T22:50:22.796Z,3.65
2022-08-19T22:52:52.217Z,2.85
2022-08-19T22:55:18.983Z,3.25
2022-08-19T22:57:45.342Z,4.68
2022-08-19T23:00:13.196Z,4.20
2022-08-19T23:02:52.337Z,6.43
2022-08-19T23:05:21.909Z,5.82
2022-08-19T23:07:52.797Z,3.53
2022-08-19T23:10:27.107Z,2.22
2022-08-19T23:12:55.985Z,1.85
2022-08-19T23:15:24.330Z,3.03
2022-08-19T23:17:50.855Z,3.50
2022-08-19T23:20:17.272Z,1.60
2022-08-19T23:22:44.769Z,2.30
2022-08-19T23:25:13.860Z,3.03
2022-08-19T23:27:58.645Z,5.05
2022-08-19T23:30:28.134Z,4.65
2022-08-19T23:32:59.145Z,4.15
2022-08-19T23:35:27.012Z,2.72
2022-08-19T23:37:53.473Z,2.95
2022-08-19T23:40:21.854Z,5.88
2022-08-19T23:42:49.424Z,5.15
2022-08-19T23:45:16.567Z,3.20
2022-08-19T23:47:50.151Z,4.63
2022-08-19T23:50:17.312Z,4.70
2022-08-19T23:52:50.737Z,4.72
2022-08-19T23:55:18.253Z,3.90
2022-08-19T23:57:44.632Z,5.45
